Maupin, OR

1:39 AM PST on January 21, 2017 (GMT -0800)
High School | | Change Station
Active Advisory: Winter Weather Advisory

Elev 1106 ft 45.18 °N, 121.08 °W | Updated 6 seconds ago

Overcast
Overcast
32.7 °F
Feels Like 33 °F
N
0.0
Wind Variable Wind from WNW
Gusts 0.0 mph

Today
High -- | Low -- °F
--% Chance of Precip.
Yesterday
High -- | Low -- °F
Precip. -- in
Pressure 29.31 in
Visibility 1.0 miles
Clouds Overcast 3600 ft
Windchill 33 °F
Dew Point 31 °F
Humidity 93%
Rainfall 0.00 in
Snow Depth Not available.
7:35 AM 4:56 PM
Last Quarter, 36% visible
SPECI KDLS 210932Z AUTO 00000KT 1SM BR OVC036 01/01 A2931 RMK AO2 T00110006
Pressure 29.31 in
Visibility 1.0 miles
Clouds Overcast 3600 ft
Windchill 33 °F
Dew Point 31 °F
Humidity 93%
Rainfall 0.00 in
Snow Depth Not available.
7:35 AM 4:56 PM
Last Quarter, 36% visible
SPECI KDLS 210932Z AUTO 00000KT 1SM BR OVC036 01/01 A2931 RMK AO2 T00110006

Get Your Daily Forecast Email!

Thanks for signing up!

Be on the lookout for a verification email in your inbox.

You'll start receiving the daily forecast at 8 AM.

×

10-Day Weather Forecast

Almanac

Astronomy

Jan. 21, 2017 Rise Set
Actual Time
Civil Twilight
Nautical Twilight
Astronomical Twilight
Moon
Length of Visible Light
Length of Day
Tomorrow will be .
, % of the Moon is Illuminated

Today's Extremes

State Highs State Lows

Community

WunderPhotos

Upload Photos

1,962,540 photos uploaded!

WunderBlog® & News

Nearby

Air Quality

  Air Quality AQ Index Pollutant
Not available.

Snow Depth

Station Depth Elevation

Earthquake Activity

City Distance Mag. Time & Date
Minimum magnitude displayed is 2.5.

Coastal Water Temperatures

Place Temperature

Stations

Nearby Weather Stations

Station Location Temp. Windchill Dew Point Humidity Wind Precip. Elev Updated Type
                   

Watches & Warnings

Winter Weather Advisory
Issued: 10:04 PM PST Jan. 20, 2017 – National Weather Service

... Winter Weather Advisory remains in effect until 4 am PST
Saturday...

* locations... Dufur... Maupin... Arlington... The Dalles...
Goldendale... Bickleton... White Salmon.

* Ice accumulations... a trace to a few hundreths of an inch.

* Snow accumulations... 1 to 3 inches of snow at the lower
elevations with 3 to 6 inches in the mountains.

* Timing... light to moderate snow will decrease overnight. Some
rain or light freezing rain could mix in at times.

* Impacts... roadways will likely become snow and ice covered...
creating hazardous conditions.

* Snow level... around 500 feet.

* Web page: for a detailed view of the hazard area visit
http://www.Wrh.NOAA.Gov/map/?Wfo=pdt.

Precautionary/preparedness actions...

A Winter Weather Advisory means that periods of snow... sleet... or
freezing rain will cause travel difficulties. Be prepared for
slippery roads and limited visibilities... and use caution while
driving.